createdAt,value
2019-06-01T00:00:24.222Z,100.00
2019-06-01T00:03:28.849Z,100.00
2019-06-01T00:06:33.333Z,100.00
2019-06-01T00:09:45.211Z,100.00
2019-06-01T00:12:49.665Z,100.00
2019-06-01T00:16:00.056Z,99.87
2019-06-01T00:19:12.266Z,99.62
2019-06-01T00:22:19.981Z,99.57
2019-06-01T00:25:24.647Z,99.49
2019-06-01T00:28:29.362Z,98.90
2019-06-01T00:31:34.036Z,98.48
2019-06-01T00:34:38.485Z,98.48
2019-06-01T00:37:50.254Z,98.36
2019-06-01T00:40:54.675Z,98.34
2019-06-01T00:43:59.345Z,98.28
2019-06-01T00:47:03.768Z,98.15
2019-06-01T00:50:08.341Z,97.88
2019-06-01T00:53:13.187Z,97.66
2019-06-01T00:56:20.412Z,97.49
2019-06-01T00:59:28.099Z,97.54
2019-06-01T01:02:32.383Z,97.08
2019-06-01T01:05:37.966Z,97.08
2019-06-01T01:08:42.297Z,96.82
2019-06-01T01:11:46.986Z,96.82
2019-06-01T01:14:51.374Z,96.55
2019-06-01T01:17:56.201Z,96.42
2019-06-01T01:21:01.026Z,96.32
2019-06-01T01:24:05.383Z,96.17
2019-06-01T01:27:09.987Z,96.24
2019-06-01T01:30:14.607Z,96.16
2019-06-01T01:33:18.917Z,95.93
2019-06-01T01:36:23.273Z,96.00
2019-06-01T01:39:27.925Z,96.33
2019-06-01T01:42:32.392Z,96.29
2019-06-01T01:45:36.790Z,96.40
2019-06-01T01:48:41.106Z,96.67
2019-06-01T01:51:45.579Z,96.58
2019-06-01T01:54:50.618Z,96.58
2019-06-01T01:57:55.475Z,96.59
2019-06-01T02:01:00.407Z,96.63
2019-06-01T02:04:06.127Z,96.70
2019-06-01T02:07:10.461Z,96.68
2019-06-01T02:10:15.014Z,96.74
2019-06-01T02:13:19.524Z,96.84
2019-06-01T02:16:23.817Z,96.94
2019-06-01T02:19:28.296Z,96.90
2019-06-01T02:22:32.581Z,96.92
2019-06-01T02:25:37.010Z,96.95
2019-06-01T02:28:41.426Z,96.81
2019-06-01T02:31:45.803Z,97.27
2019-06-01T02:34:50.108Z,97.44
2019-06-01T02:37:55.057Z,97.75
2019-06-01T02:41:01.206Z,97.75
2019-06-01T02:44:06.468Z,97.70
2019-06-01T02:47:11.933Z,97.70
2019-06-01T02:50:17.438Z,97.73
2019-06-01T02:53:21.712Z,97.62
2019-06-01T02:56:25.996Z,97.69
2019-06-01T02:59:30.321Z,98.00
2019-06-01T03:02:35.402Z,98.27
2019-06-01T03:05:42.762Z,98.21
2019-06-01T03:08:50.651Z,98.33
2019-06-01T03:11:59.375Z,98.26
2019-06-01T03:15:06.572Z,98.38
2019-06-01T03:18:13.640Z,98.56
2019-06-01T03:21:21.383Z,98.43
2019-06-01T03:24:26.288Z,98.58
2019-06-01T03:27:33.214Z,98.55
2019-06-01T03:30:45.400Z,98.59
2019-06-01T03:33:48.672Z,98.82
2019-06-01T03:36:56.112Z,98.77
2019-06-01T03:39:59.009Z,98.78
2019-06-01T03:43:04.277Z,98.76
2019-06-01T03:46:09.828Z,98.66
2019-06-01T03:49:14.189Z,98.57
2019-06-01T03:52:18.595Z,98.30
2019-06-01T03:55:22.881Z,98.23
2019-06-01T03:58:27.217Z,98.19
2019-06-01T04:01:31.589Z,97.90
2019-06-01T04:04:35.986Z,97.97
2019-06-01T04:07:41.393Z,97.68
2019-06-01T04:10:45.978Z,97.78
2019-06-01T04:13:50.293Z,97.55
2019-06-01T04:16:54.576Z,97.45
2019-06-01T04:19:58.865Z,97.52
2019-06-01T04:23:04.588Z,97.34
2019-06-01T04:26:10.171Z,97.32
2019-06-01T04:29:14.657Z,96.75
2019-06-01T04:32:18.966Z,96.74
2019-06-01T04:35:23.259Z,96.43
2019-06-01T04:38:27.537Z,96.21
2019-06-01T04:41:34.647Z,95.93
2019-06-01T04:44:39.035Z,95.94
2019-06-01T04:47:43.339Z,95.58
2019-06-01T04:50:47.659Z,95.41
2019-06-01T04:53:51.959Z,95.52
2019-06-01T04:56:56.323Z,95.33
2019-06-01T05:00:00.646Z,95.14
2019-06-01T05:03:07.252Z,95.15
2019-06-01T05:06:11.332Z,95.21
2019-06-01T05:09:15.928Z,95.12
2019-06-01T05:12:20.232Z,94.49
2019-06-01T05:15:24.592Z,94.59
2019-06-01T05:18:28.891Z,94.11
2019-06-01T05:21:33.186Z,93.92
2019-06-01T05:24:37.474Z,93.32
2019-06-01T05:27:41.788Z,92.81
2019-06-01T05:30:46.095Z,92.07
2019-06-01T05:33:50.443Z,91.69
2019-06-01T05:36:54.745Z,91.22
2019-06-01T05:39:59.141Z,91.05
2019-06-01T05:43:03.445Z,90.66
2019-06-01T05:46:07.720Z,90.27
2019-06-01T05:49:13.243Z,89.72
2019-06-01T05:52:19.319Z,89.77
2019-06-01T05:55:23.725Z,90.20
2019-06-01T05:58:29.384Z,90.59
2019-06-01T06:01:33.884Z,91.07
2019-06-01T06:04:39.853Z,91.03
2019-06-01T06:07:44.131Z,91.27
2019-06-01T06:10:48.430Z,90.65
2019-06-01T06:13:52.720Z,90.75
2019-06-01T06:16:57.075Z,88.92
2019-06-01T06:20:01.486Z,88.63
2019-06-01T06:23:05.787Z,88.50
2019-06-01T06:26:10.128Z,88.43
2019-06-01T06:29:14.772Z,88.95
2019-06-01T06:32:19.382Z,90.46
2019-06-01T06:35:23.967Z,90.86
2019-06-01T06:38:28.349Z,91.20
2019-06-01T06:41:32.647Z,92.26
2019-06-01T06:44:37.049Z,92.45
2019-06-01T06:47:41.336Z,92.25
2019-06-01T06:50:45.637Z,91.53
2019-06-01T06:53:50.061Z,90.98
2019-06-01T06:56:54.367Z,90.87
2019-06-01T06:59:58.636Z,90.50
2019-06-01T07:03:02.976Z,89.83
2019-06-01T07:06:07.423Z,89.72
2019-06-01T07:09:13.277Z,89.30
2019-06-01T07:12:19.262Z,87.91
2019-06-01T07:15:23.652Z,87.85
2019-06-01T07:18:27.982Z,87.42
2019-06-01T07:21:32.269Z,87.00
2019-06-01T07:24:38.364Z,86.40
2019-06-01T07:27:42.686Z,85.75
2019-06-01T07:30:50.351Z,84.82
2019-06-01T07:33:53.175Z,85.08
2019-06-01T07:36:57.565Z,84.49
2019-06-01T07:40:01.895Z,84.12
2019-06-01T07:43:06.199Z,82.91
2019-06-01T07:46:10.484Z,83.24
2019-06-01T07:49:14.860Z,82.30
2019-06-01T07:52:20.217Z,82.07
2019-06-01T07:55:25.507Z,80.36
2019-06-01T07:58:31.417Z,81.32
2019-06-01T08:01:35.775Z,80.98
2019-06-01T08:04:53.253Z,81.31
2019-06-01T08:07:50.072Z,81.25
2019-06-01T08:10:54.374Z,81.09
2019-06-01T08:13:58.665Z,81.64
2019-06-01T08:17:02.959Z,81.54
2019-06-01T08:20:09.102Z,81.98
2019-06-01T08:23:13.399Z,82.40
2019-06-01T08:26:20.141Z,82.68
2019-06-01T08:29:24.740Z,82.62
2019-06-01T08:32:29.227Z,83.02
2019-06-01T08:35:33.525Z,81.99
2019-06-01T08:38:37.809Z,82.55
2019-06-01T08:41:42.198Z,82.29
2019-06-01T08:44:46.632Z,82.39
2019-06-01T08:47:50.951Z,81.88
2019-06-01T08:50:55.330Z,82.29
2019-06-01T08:53:59.643Z,81.92
2019-06-01T08:57:03.958Z,81.75
2019-06-01T09:00:09.474Z,82.16
2019-06-01T09:03:13.726Z,81.06
2019-06-01T09:06:17.999Z,81.46
2019-06-01T09:09:22.309Z,81.86
2019-06-01T09:12:27.278Z,82.56
2019-06-01T09:15:35.594Z,83.28
2019-06-01T09:18:40.143Z,83.76
2019-06-01T09:21:44.576Z,83.19
2019-06-01T09:24:53.131Z,82.77
2019-06-01T09:27:54.962Z,83.21
2019-06-01T09:31:00.319Z,83.56
2019-06-01T09:34:04.592Z,83.54
2019-06-01T09:37:08.872Z,83.79
2019-06-01T09:40:13.545Z,82.57
2019-06-01T09:43:17.865Z,83.28
2019-06-01T09:46:22.653Z,83.71
2019-06-01T09:49:27.338Z,83.68
2019-06-01T09:52:31.782Z,83.06
2019-06-01T09:55:36.450Z,82.43
2019-06-01T09:58:42.014Z,83.05
2019-06-01T10:01:46.394Z,82.67
2019-06-01T10:04:50.704Z,82.27
2019-06-01T10:07:54.990Z,83.07
2019-06-01T10:10:59.573Z,82.24
2019-06-01T10:14:03.936Z,81.96
2019-06-01T10:17:08.233Z,81.86
2019-06-01T10:20:12.605Z,81.38
2019-06-01T10:23:16.878Z,80.90
2019-06-01T10:26:21.210Z,78.62
2019-06-01T10:29:25.572Z,77.58
2019-06-01T10:32:32.489Z,77.91
2019-06-01T10:35:37.069Z,78.96
2019-06-01T10:38:41.519Z,79.66
2019-06-01T10:41:45.924Z,80.35
2019-06-01T10:44:50.201Z,81.33
2019-06-01T10:47:54.571Z,80.48
2019-06-01T10:50:58.858Z,79.86
2019-06-01T10:54:03.459Z,77.63
2019-06-01T10:57:07.738Z,76.41
2019-06-01T11:00:12.940Z,76.23
2019-06-01T11:03:17.213Z,77.55
2019-06-01T11:06:36.215Z,78.76
2019-06-01T11:09:28.753Z,79.51
2019-06-01T11:12:33.037Z,79.91
2019-06-01T11:15:37.297Z,80.08
2019-06-01T11:18:41.844Z,80.00
2019-06-01T11:21:46.215Z,79.10
2019-06-01T11:24:50.496Z,77.38
2019-06-01T11:27:54.791Z,76.73
2019-06-01T11:30:59.104Z,75.90
2019-06-01T11:34:03.361Z,75.49
2019-06-01T11:37:07.749Z,75.90
2019-06-01T11:40:12.155Z,76.02
2019-06-01T11:43:16.548Z,76.65
2019-06-01T11:46:20.847Z,76.40
2019-06-01T11:49:25.130Z,76.48
2019-06-01T11:52:29.525Z,77.12
2019-06-01T11:55:35.054Z,75.96
2019-06-01T11:58:39.610Z,75.79
2019-06-01T12:01:44.187Z,74.36
2019-06-01T12:04:48.680Z,75.10
2019-06-01T12:07:52.964Z,75.45
2019-06-01T12:10:57.272Z,76.09
2019-06-01T12:14:01.551Z,76.42
2019-06-01T12:17:05.828Z,76.40
2019-06-01T12:20:10.736Z,77.15
2019-06-01T12:23:15.013Z,78.01
2019-06-01T12:26:19.418Z,78.95
2019-06-01T12:29:23.730Z,79.48
2019-06-01T12:32:29.789Z,80.04
2019-06-01T12:35:34.089Z,79.43
2019-06-01T12:38:52.354Z,78.23
2019-06-01T12:41:56.658Z,78.18
2019-06-01T12:45:00.978Z,77.22
2019-06-01T12:48:05.393Z,77.25
2019-06-01T12:51:09.684Z,75.69
2019-06-01T12:54:13.939Z,75.47
2019-06-01T12:57:18.325Z,73.97
2019-06-01T13:00:22.606Z,74.46
2019-06-01T13:03:26.900Z,74.38
2019-06-01T13:06:31.181Z,73.33
2019-06-01T13:09:35.480Z,74.53
2019-06-01T13:12:41.005Z,73.57
2019-06-01T13:15:45.383Z,73.24
2019-06-01T13:18:49.690Z,73.76
2019-06-01T13:21:53.973Z,72.50
2019-06-01T13:24:58.287Z,72.26
2019-06-01T13:28:02.559Z,72.20
2019-06-01T13:31:07.092Z,71.64
2019-06-01T13:34:12.368Z,72.61
2019-06-01T13:37:16.717Z,73.05
2019-06-01T13:40:21.026Z,74.86
2019-06-01T13:43:25.328Z,74.22
2019-06-01T13:46:31.452Z,71.71
2019-06-01T13:49:35.864Z,71.70
2019-06-01T13:52:40.163Z,71.09
2019-06-01T13:55:44.440Z,71.01
2019-06-01T13:58:48.802Z,68.40
2019-06-01T14:01:53.291Z,67.69
2019-06-01T14:04:57.531Z,68.32
2019-06-01T14:08:01.818Z,67.80
2019-06-01T14:11:06.109Z,67.27
2019-06-01T14:14:10.384Z,67.76
2019-06-01T14:17:14.656Z,68.27
2019-06-01T14:20:18.933Z,66.92
2019-06-01T14:23:23.634Z,67.22
2019-06-01T14:26:28.011Z,67.96
2019-06-01T14:29:32.278Z,67.53
2019-06-01T14:32:36.582Z,67.63
2019-06-01T14:35:40.875Z,66.38
2019-06-01T14:38:47.788Z,66.09
2019-06-01T14:41:51.224Z,65.45
2019-06-01T14:44:55.997Z,65.01
2019-06-01T14:48:00.243Z,65.38
2019-06-01T14:51:04.739Z,64.85
2019-06-01T14:54:09.030Z,64.19
2019-06-01T14:57:13.422Z,63.56
2019-06-01T15:00:17.918Z,64.08
2019-06-01T15:03:22.232Z,64.72
2019-06-01T15:06:26.555Z,65.85
2019-06-01T15:09:30.842Z,66.37
2019-06-01T15:12:35.180Z,66.80
2019-06-01T15:15:39.482Z,66.65
2019-06-01T15:18:43.858Z,65.20
2019-06-01T15:21:49.938Z,65.15
2019-06-01T15:24:56.461Z,64.66
2019-06-01T15:28:00.803Z,63.93
2019-06-01T15:31:05.097Z,64.24
2019-06-01T15:34:09.399Z,63.75
2019-06-01T15:37:13.829Z,65.75
2019-06-01T15:40:18.389Z,63.81
2019-06-01T15:43:22.702Z,61.96
2019-06-01T15:46:28.145Z,61.58
2019-06-01T15:49:32.429Z,60.69
2019-06-01T15:52:36.755Z,60.22
2019-06-01T15:55:41.062Z,63.19
2019-06-01T15:58:52.992Z,63.97
2019-06-01T16:01:52.880Z,62.92
2019-06-01T16:04:57.312Z,63.98
2019-06-01T16:08:01.773Z,64.86
2019-06-01T16:11:06.711Z,66.07
2019-06-01T16:14:11.140Z,66.30
2019-06-01T16:17:15.441Z,66.12
2019-06-01T16:20:19.948Z,64.68
2019-06-01T16:23:24.295Z,63.93
2019-06-01T16:26:28.674Z,61.06
2019-06-01T16:29:33.011Z,60.56
2019-06-01T16:32:39.548Z,62.34
2019-06-01T16:35:43.441Z,64.14
2019-06-01T16:38:47.729Z,63.95
2019-06-01T16:41:52.043Z,63.69
2019-06-01T16:44:57.433Z,62.85
2019-06-01T16:48:01.781Z,62.61
2019-06-01T16:51:07.607Z,62.82
2019-06-01T16:54:13.106Z,62.45
2019-06-01T16:57:17.479Z,61.83
2019-06-01T17:00:22.213Z,61.08
2019-06-01T17:03:27.727Z,62.41
2019-06-01T17:06:32.427Z,60.48
2019-06-01T17:09:36.706Z,60.15
2019-06-01T17:12:43.633Z,61.09
2019-06-01T17:15:47.052Z,61.05
2019-06-01T17:18:51.362Z,61.91
2019-06-01T17:21:55.782Z,63.53
2019-06-01T17:25:00.092Z,65.78
2019-06-01T17:28:05.265Z,67.01
2019-06-01T17:31:09.632Z,68.38
2019-06-01T17:34:15.756Z,69.21
2019-06-01T17:37:20.064Z,69.51
2019-06-01T17:40:36.768Z,69.30
2019-06-01T17:43:30.501Z,69.98
2019-06-01T17:46:43.339Z,70.32
2019-06-01T17:49:40.887Z,71.18
2019-06-01T17:52:45.205Z,71.41
2019-06-01T17:55:49.485Z,71.82
2019-06-01T17:58:53.853Z,71.84
2019-06-01T18:01:58.155Z,72.50
2019-06-01T18:05:03.945Z,72.59
2019-06-01T18:08:08.544Z,73.11
2019-06-01T18:11:12.991Z,73.90
2019-06-01T18:14:17.518Z,74.34
2019-06-01T18:17:21.807Z,74.11
2019-06-01T18:20:26.175Z,74.48
2019-06-01T18:23:30.623Z,75.04
2019-06-01T18:26:35.014Z,75.11
2019-06-01T18:29:47.356Z,75.32
2019-06-01T18:32:45.408Z,76.25
2019-06-01T18:35:49.820Z,76.80
2019-06-01T18:38:54.135Z,77.62
2019-06-01T18:41:58.575Z,78.21
2019-06-01T18:45:05.654Z,78.55
2019-06-01T18:48:10.377Z,79.17
2019-06-01T18:51:14.680Z,78.87
2019-06-01T18:54:19.007Z,79.41
2019-06-01T18:57:23.568Z,80.04
2019-06-01T19:00:28.038Z,80.54
2019-06-01T19:03:32.348Z,80.61
2019-06-01T19:06:36.657Z,80.59
2019-06-01T19:09:40.992Z,80.80
2019-06-01T19:12:45.302Z,80.80
2019-06-01T19:15:51.102Z,80.66
2019-06-01T19:18:55.404Z,80.53
2019-06-01T19:22:06.589Z,80.61
2019-06-01T19:25:19.398Z,80.46
2019-06-01T19:28:29.792Z,80.59
2019-06-01T19:31:41.040Z,80.73
2019-06-01T19:34:52.039Z,80.63
2019-06-01T19:38:02.044Z,80.71
2019-06-01T19:41:11.324Z,80.78
2019-06-01T19:44:18.932Z,80.75
2019-06-01T19:47:23.562Z,81.15
2019-06-01T19:50:30.029Z,81.67
2019-06-01T19:53:34.480Z,82.82
2019-06-01T19:56:39.065Z,83.00
2019-06-01T19:59:47.483Z,83.56
2019-06-01T20:02:52.644Z,84.12
2019-06-01T20:05:56.979Z,84.36
2019-06-01T20:09:01.439Z,84.57
2019-06-01T20:12:11.578Z,84.93
2019-06-01T20:15:13.315Z,85.14
2019-06-01T20:18:19.078Z,85.42
2019-06-01T20:21:23.671Z,85.70
2019-06-01T20:24:28.148Z,85.77
2019-06-01T20:27:33.637Z,86.03
2019-06-01T20:30:38.078Z,85.70
2019-06-01T20:33:42.424Z,85.90
2019-06-01T20:36:46.885Z,87.13
2019-06-01T20:39:51.261Z,87.13
2019-06-01T20:42:55.711Z,87.73
2019-06-01T20:46:00.011Z,88.27
2019-06-01T20:49:04.503Z,88.37
2019-06-01T20:52:08.852Z,88.58
2019-06-01T20:55:15.178Z,88.73
2019-06-01T20:58:22.060Z,89.04
2019-06-01T21:01:25.900Z,89.13
2019-06-01T21:04:30.200Z,89.13
2019-06-01T21:07:35.994Z,90.01
2019-06-01T21:10:40.319Z,90.38
2019-06-01T21:13:44.677Z,90.38
2019-06-01T21:16:51.102Z,90.27
2019-06-01T21:19:55.526Z,90.48
2019-06-01T21:23:00.969Z,90.79
2019-06-01T21:26:05.544Z,91.58
2019-06-01T21:29:11.669Z,91.77
2019-06-01T21:32:17.309Z,91.86
2019-06-01T21:35:23.456Z,92.30
2019-06-01T21:38:27.943Z,92.30
2019-06-01T21:41:32.325Z,92.61
2019-06-01T21:44:36.625Z,92.84
2019-06-01T21:47:40.924Z,92.84
2019-06-01T21:50:45.235Z,92.72
2019-06-01T21:53:51.008Z,92.76
2019-06-01T21:56:55.302Z,92.78
2019-06-01T21:59:59.600Z,92.48
2019-06-01T22:03:03.961Z,92.44
2019-06-01T22:06:08.271Z,92.81
2019-06-01T22:09:12.610Z,93.32
2019-06-01T22:12:19.128Z,93.32
2019-06-01T22:15:23.870Z,93.41
2019-06-01T22:18:28.285Z,93.80
2019-06-01T22:21:32.690Z,94.05
2019-06-01T22:24:37.018Z,94.23
2019-06-01T22:27:41.366Z,94.20
2019-06-01T22:30:45.769Z,94.25
2019-06-01T22:33:50.076Z,94.22
2019-06-01T22:36:54.471Z,94.44
2019-06-01T22:39:58.773Z,94.70
2019-06-01T22:43:03.087Z,95.00
2019-06-01T22:46:09.235Z,95.17
2019-06-01T22:49:13.553Z,95.12
2019-06-01T22:52:17.852Z,96.27
2019-06-01T22:55:24.358Z,96.26
2019-06-01T22:58:29.656Z,96.26
2019-06-01T23:01:34.151Z,96.30
2019-06-01T23:04:38.472Z,96.39
2019-06-01T23:07:42.770Z,96.14
2019-06-01T23:10:47.063Z,96.45
2019-06-01T23:13:53.728Z,96.50
2019-06-01T23:16:57.343Z,96.56
2019-06-01T23:20:01.639Z,96.69
2019-06-01T23:23:05.948Z,96.65
2019-06-01T23:26:10.248Z,96.47
2019-06-01T23:29:14.588Z,96.33
2019-06-01T23:32:18.885Z,96.35
2019-06-01T23:35:24.326Z,96.39
2019-06-01T23:38:28.792Z,96.60
2019-06-01T23:41:33.104Z,96.80
2019-06-01T23:44:38.866Z,96.90
2019-06-01T23:47:43.239Z,97.12
2019-06-01T23:50:47.632Z,97.22
2019-06-01T23:53:51.949Z,97.26
2019-06-01T23:56:56.254Z,97.40
